sensor_id;sensor_type;location;lat;lon;timestamp;temperature;humidity
29687;DHT22;16599;47.078;15.536;2022-07-22T00:00:06;20.00;93.50
29687;DHT22;16599;47.078;15.536;2022-07-22T00:02:34;19.80;94.00
29687;DHT22;16599;47.078;15.536;2022-07-22T00:05:01;19.50;94.50
29687;DHT22;16599;47.078;15.536;2022-07-22T00:07:28;19.40;94.70
29687;DHT22;16599;47.078;15.536;2022-07-22T00:09:55;19.30;94.70
29687;DHT22;16599;47.078;15.536;2022-07-22T00:12:22;19.40;95.40
29687;DHT22;16599;47.078;15.536;2022-07-22T00:14:49;19.30;94.70
29687;DHT22;16599;47.078;15.536;2022-07-22T00:17:16;19.10;94.40
29687;DHT22;16599;47.078;15.536;2022-07-22T00:19:43;18.90;94.50
29687;DHT22;16599;47.078;15.536;2022-07-22T00:22:10;18.80;94.70
29687;DHT22;16599;47.078;15.536;2022-07-22T00:24:37;18.90;94.90
29687;DHT22;16599;47.078;15.536;2022-07-22T00:27:03;19.00;95.20
29687;DHT22;16599;47.078;15.536;2022-07-22T00:29:30;18.90;95.30
29687;DHT22;16599;47.078;15.536;2022-07-22T00:31:57;18.80;95.10
29687;DHT22;16599;47.078;15.536;2022-07-22T00:34:24;18.60;94.10
29687;DHT22;16599;47.078;15.536;2022-07-22T00:36:51;18.40;94.70
29687;DHT22;16599;47.078;15.536;2022-07-22T00:39:18;18.20;95.40
29687;DHT22;16599;47.078;15.536;2022-07-22T00:41:45;18.10;95.40
29687;DHT22;16599;47.078;15.536;2022-07-22T00:44:12;18.30;95.50
29687;DHT22;16599;47.078;15.536;2022-07-22T00:46:39;18.60;95.40
29687;DHT22;16599;47.078;15.536;2022-07-22T00:49:08;18.90;95.00
29687;DHT22;16599;47.078;15.536;2022-07-22T00:51:36;18.70;94.30
29687;DHT22;16599;47.078;15.536;2022-07-22T00:54:04;18.20;94.90
29687;DHT22;16599;47.078;15.536;2022-07-22T00:56:31;18.00;95.80
29687;DHT22;16599;47.078;15.536;2022-07-22T00:59:03;17.90;96.50
29687;DHT22;16599;47.078;15.536;2022-07-22T01:01:30;18.10;96.40
29687;DHT22;16599;47.078;15.536;2022-07-22T01:03:58;18.20;95.60
29687;DHT22;16599;47.078;15.536;2022-07-22T01:06:29;18.20;94.90
29687;DHT22;16599;47.078;15.536;2022-07-22T01:08:56;18.20;94.80
29687;DHT22;16599;47.078;15.536;2022-07-22T01:11:25;17.80;95.30
29687;DHT22;16599;47.078;15.536;2022-07-22T01:13:54;17.70;95.50
29687;DHT22;16599;47.078;15.536;2022-07-22T01:16:21;17.90;95.20
29687;DHT22;16599;47.078;15.536;2022-07-22T01:18:48;17.80;95.00
29687;DHT22;16599;47.078;15.536;2022-07-22T01:21:16;18.00;94.70
29687;DHT22;16599;47.078;15.536;2022-07-22T01:23:44;17.90;94.90
29687;DHT22;16599;47.078;15.536;2022-07-22T01:26:11;17.90;95.00
29687;DHT22;16599;47.078;15.536;2022-07-22T01:28:38;17.80;95.00
29687;DHT22;16599;47.078;15.536;2022-07-22T01:31:05;17.70;95.70
29687;DHT22;16599;47.078;15.536;2022-07-22T01:33:33;17.80;95.70
29687;DHT22;16599;47.078;15.536;2022-07-22T01:36:01;17.90;95.70
29687;DHT22;16599;47.078;15.536;2022-07-22T01:38:28;18.00;95.70
29687;DHT22;16599;47.078;15.536;2022-07-22T01:40:55;18.00;95.50
29687;DHT22;16599;47.078;15.536;2022-07-22T01:43:22;18.10;95.40
29687;DHT22;16599;47.078;15.536;2022-07-22T01:45:51;18.00;95.50
29687;DHT22;16599;47.078;15.536;2022-07-22T01:48:20;17.90;95.60
29687;DHT22;16599;47.078;15.536;2022-07-22T01:50:48;17.80;95.70
29687;DHT22;16599;47.078;15.536;2022-07-22T01:53:15;17.80;95.90
29687;DHT22;16599;47.078;15.536;2022-07-22T01:55:42;17.70;96.10
29687;DHT22;16599;47.078;15.536;2022-07-22T01:58:09;17.50;96.20
29687;DHT22;16599;47.078;15.536;2022-07-22T02:00:36;17.30;96.90
29687;DHT22;16599;47.078;15.536;2022-07-22T02:03:04;17.40;97.60
29687;DHT22;16599;47.078;15.536;2022-07-22T02:05:31;17.30;97.10
29687;DHT22;16599;47.078;15.536;2022-07-22T02:08:07;17.30;96.90
29687;DHT22;16599;47.078;15.536;2022-07-22T02:10:35;17.30;96.90
29687;DHT22;16599;47.078;15.536;2022-07-22T02:13:02;17.30;96.80
29687;DHT22;16599;47.078;15.536;2022-07-22T02:15:29;17.30;96.60
29687;DHT22;16599;47.078;15.536;2022-07-22T02:17:56;17.30;97.00
29687;DHT22;16599;47.078;15.536;2022-07-22T02:20:24;17.10;97.40
29687;DHT22;16599;47.078;15.536;2022-07-22T02:22:51;17.00;97.90
29687;DHT22;16599;47.078;15.536;2022-07-22T02:25:18;17.20;97.80
29687;DHT22;16599;47.078;15.536;2022-07-22T02:27:45;17.20;97.20
29687;DHT22;16599;47.078;15.536;2022-07-22T02:30:12;17.00;97.70
29687;DHT22;16599;47.078;15.536;2022-07-22T02:32:39;17.00;97.90
29687;DHT22;16599;47.078;15.536;2022-07-22T02:35:07;16.90;98.00
29687;DHT22;16599;47.078;15.536;2022-07-22T02:37:34;16.80;98.70
29687;DHT22;16599;47.078;15.536;2022-07-22T02:40:01;16.80;99.10
29687;DHT22;16599;47.078;15.536;2022-07-22T02:42:28;16.90;98.40
29687;DHT22;16599;47.078;15.536;2022-07-22T02:44:55;16.80;98.80
29687;DHT22;16599;47.078;15.536;2022-07-22T02:47:22;16.90;98.60
29687;DHT22;16599;47.078;15.536;2022-07-22T02:49:48;17.00;98.80
29687;DHT22;16599;47.078;15.536;2022-07-22T02:52:15;16.90;98.50
29687;DHT22;16599;47.078;15.536;2022-07-22T02:54:42;16.80;98.70
29687;DHT22;16599;47.078;15.536;2022-07-22T02:57:09;16.70;99.00
29687;DHT22;16599;47.078;15.536;2022-07-22T02:59:36;16.60;99.40
29687;DHT22;16599;47.078;15.536;2022-07-22T03:02:03;16.60;99.90
29687;DHT22;16599;47.078;15.536;2022-07-22T03:04:30;16.60;99.80
29687;DHT22;16599;47.078;15.536;2022-07-22T03:06:57;16.70;99.90
29687;DHT22;16599;47.078;15.536;2022-07-22T03:09:24;16.70;99.90
29687;DHT22;16599;47.078;15.536;2022-07-22T03:11:51;16.60;99.90
29687;DHT22;16599;47.078;15.536;2022-07-22T03:14:18;16.60;99.90
29687;DHT22;16599;47.078;15.536;2022-07-22T03:16:45;16.80;99.90
29687;DHT22;16599;47.078;15.536;2022-07-22T03:19:12;16.70;99.90
29687;DHT22;16599;47.078;15.536;2022-07-22T03:21:39;16.60;99.90
29687;DHT22;16599;47.078;15.536;2022-07-22T03:24:06;16.70;99.90
29687;DHT22;16599;47.078;15.536;2022-07-22T03:26:33;16.80;99.90
29687;DHT22;16599;47.078;15.536;2022-07-22T03:29:00;16.70;99.90
29687;DHT22;16599;47.078;15.536;2022-07-22T03:31:27;16.90;99.90
29687;DHT22;16599;47.078;15.536;2022-07-22T03:33:54;17.00;99.90
29687;DHT22;16599;47.078;15.536;2022-07-22T03:36:21;16.90;99.90
29687;DHT22;16599;47.078;15.536;2022-07-22T03:38:48;16.80;99.90
29687;DHT22;16599;47.078;15.536;2022-07-22T03:41:15;16.80;99.90
29687;DHT22;16599;47.078;15.536;2022-07-22T03:43:41;16.60;99.90
29687;DHT22;16599;47.078;15.536;2022-07-22T03:46:08;16.50;99.90
29687;DHT22;16599;47.078;15.536;2022-07-22T03:48:35;16.60;99.90
29687;DHT22;16599;47.078;15.536;2022-07-22T03:51:02;16.60;99.90
29687;DHT22;16599;47.078;15.536;2022-07-22T03:53:29;16.60;99.90
29687;DHT22;16599;47.078;15.536;2022-07-22T03:55:56;16.50;99.90
29687;DHT22;16599;47.078;15.536;2022-07-22T03:58:23;16.60;99.90
29687;DHT22;16599;47.078;15.536;2022-07-22T04:00:51;16.70;99.90
29687;DHT22;16599;47.078;15.536;2022-07-22T04:03:18;16.80;99.90
29687;DHT22;16599;47.078;15.536;2022-07-22T04:05:45;16.80;99.90
29687;DHT22;16599;47.078;15.536;2022-07-22T04:08:12;16.90;99.90
29687;DHT22;16599;47.078;15.536;2022-07-22T04:10:40;16.90;99.90
29687;DHT22;16599;47.078;15.536;2022-07-22T04:13:06;17.10;99.90
29687;DHT22;16599;47.078;15.536;2022-07-22T04:15:33;17.00;99.90
29687;DHT22;16599;47.078;15.536;2022-07-22T04:18:00;16.90;99.90
29687;DHT22;16599;47.078;15.536;2022-07-22T04:20:27;17.00;99.90
29687;DHT22;16599;47.078;15.536;2022-07-22T04:22:54;17.20;99.90
29687;DHT22;16599;47.078;15.536;2022-07-22T04:25:21;17.20;99.90
29687;DHT22;16599;47.078;15.536;2022-07-22T04:27:48;17.20;99.90
29687;DHT22;16599;47.078;15.536;2022-07-22T04:30:15;17.30;99.90
29687;DHT22;16599;47.078;15.536;2022-07-22T04:32:42;17.30;99.90
29687;DHT22;16599;47.078;15.536;2022-07-22T04:35:09;17.40;99.90
29687;DHT22;16599;47.078;15.536;2022-07-22T04:37:36;17.60;99.90
29687;DHT22;16599;47.078;15.536;2022-07-22T04:40:03;17.80;99.90
29687;DHT22;16599;47.078;15.536;2022-07-22T04:42:30;18.00;99.90
29687;DHT22;16599;47.078;15.536;2022-07-22T04:44:57;18.10;99.90
29687;DHT22;16599;47.078;15.536;2022-07-22T04:47:24;18.10;99.90
29687;DHT22;16599;47.078;15.536;2022-07-22T04:49:51;18.10;99.90
29687;DHT22;16599;47.078;15.536;2022-07-22T04:52:18;18.30;99.90
29687;DHT22;16599;47.078;15.536;2022-07-22T04:54:46;18.40;99.90
29687;DHT22;16599;47.078;15.536;2022-07-22T04:57:13;18.50;99.90
29687;DHT22;16599;47.078;15.536;2022-07-22T04:59:40;18.60;99.90
29687;DHT22;16599;47.078;15.536;2022-07-22T05:02:07;18.60;99.90
29687;DHT22;16599;47.078;15.536;2022-07-22T05:04:34;18.80;99.90
29687;DHT22;16599;47.078;15.536;2022-07-22T05:07:01;18.90;99.90
29687;DHT22;16599;47.078;15.536;2022-07-22T05:09:29;19.10;99.90
29687;DHT22;16599;47.078;15.536;2022-07-22T05:11:57;19.20;99.90
29687;DHT22;16599;47.078;15.536;2022-07-22T05:14:24;19.30;99.90
29687;DHT22;16599;47.078;15.536;2022-07-22T05:16:51;19.30;99.90
29687;DHT22;16599;47.078;15.536;2022-07-22T05:19:18;19.50;99.90
29687;DHT22;16599;47.078;15.536;2022-07-22T05:21:45;19.60;99.70
29687;DHT22;16599;47.078;15.536;2022-07-22T05:24:12;19.70;99.50
29687;DHT22;16599;47.078;15.536;2022-07-22T05:26:40;19.70;99.10
29687;DHT22;16599;47.078;15.536;2022-07-22T05:29:06;19.80;99.30
29687;DHT22;16599;47.078;15.536;2022-07-22T05:31:33;19.90;99.70
29687;DHT22;16599;47.078;15.536;2022-07-22T05:34:00;19.90;99.90
29687;DHT22;16599;47.078;15.536;2022-07-22T05:36:27;20.00;99.90
29687;DHT22;16599;47.078;15.536;2022-07-22T05:38:54;20.10;99.80
29687;DHT22;16599;47.078;15.536;2022-07-22T05:41:21;20.30;99.90
29687;DHT22;16599;47.078;15.536;2022-07-22T05:43:48;20.50;98.90
29687;DHT22;16599;47.078;15.536;2022-07-22T05:46:15;20.80;98.80
29687;DHT22;16599;47.078;15.536;2022-07-22T05:48:42;20.90;98.50
29687;DHT22;16599;47.078;15.536;2022-07-22T05:51:13;21.10;98.40
29687;DHT22;16599;47.078;15.536;2022-07-22T05:53:41;21.40;97.60
29687;DHT22;16599;47.078;15.536;2022-07-22T05:56:09;21.40;98.00
29687;DHT22;16599;47.078;15.536;2022-07-22T05:58:42;21.60;96.10
29687;DHT22;16599;47.078;15.536;2022-07-22T06:01:10;21.90;95.30
29687;DHT22;16599;47.078;15.536;2022-07-22T06:03:37;22.00;95.10
29687;DHT22;16599;47.078;15.536;2022-07-22T06:06:04;22.00;95.20
29687;DHT22;16599;47.078;15.536;2022-07-22T06:08:36;22.00;96.60
29687;DHT22;16599;47.078;15.536;2022-07-22T06:11:03;22.10;95.50
29687;DHT22;16599;47.078;15.536;2022-07-22T06:13:31;22.20;96.20
29687;DHT22;16599;47.078;15.536;2022-07-22T06:15:59;22.50;95.90
29687;DHT22;16599;47.078;15.536;2022-07-22T06:18:26;22.60;95.40
29687;DHT22;16599;47.078;15.536;2022-07-22T06:20:53;22.90;96.20
29687;DHT22;16599;47.078;15.536;2022-07-22T06:23:21;23.60;92.90
29687;DHT22;16599;47.078;15.536;2022-07-22T06:25:49;24.00;90.80
29687;DHT22;16599;47.078;15.536;2022-07-22T06:28:16;24.10;91.30
29687;DHT22;16599;47.078;15.536;2022-07-22T06:30:43;23.80;93.40
29687;DHT22;16599;47.078;15.536;2022-07-22T06:33:10;24.20;87.00
29687;DHT22;16599;47.078;15.536;2022-07-22T06:35:40;24.30;90.80
29687;DHT22;16599;47.078;15.536;2022-07-22T06:38:07;24.10;91.30
29687;DHT22;16599;47.078;15.536;2022-07-22T06:40:44;24.50;87.90
29687;DHT22;16599;47.078;15.536;2022-07-22T06:43:11;24.90;85.20
29687;DHT22;16599;47.078;15.536;2022-07-22T06:45:38;24.70;90.00
29687;DHT22;16599;47.078;15.536;2022-07-22T06:48:05;25.00;84.50
29687;DHT22;16599;47.078;15.536;2022-07-22T06:50:32;24.90;86.10
29687;DHT22;16599;47.078;15.536;2022-07-22T06:52:59;24.90;88.00
29687;DHT22;16599;47.078;15.536;2022-07-22T06:55:26;25.10;89.30
29687;DHT22;16599;47.078;15.536;2022-07-22T06:57:53;25.40;86.70
29687;DHT22;16599;47.078;15.536;2022-07-22T07:00:20;25.20;87.70
29687;DHT22;16599;47.078;15.536;2022-07-22T07:02:47;25.00;80.90
29687;DHT22;16599;47.078;15.536;2022-07-22T07:05:14;25.20;85.90
29687;DHT22;16599;47.078;15.536;2022-07-22T07:07:46;25.20;80.90
29687;DHT22;16599;47.078;15.536;2022-07-22T07:10:13;25.40;79.80
29687;DHT22;16599;47.078;15.536;2022-07-22T07:12:43;25.40;82.40
29687;DHT22;16599;47.078;15.536;2022-07-22T07:15:10;25.40;81.50
29687;DHT22;16599;47.078;15.536;2022-07-22T07:17:51;25.50;82.30
29687;DHT22;16599;47.078;15.536;2022-07-22T07:20:18;25.60;77.30
29687;DHT22;16599;47.078;15.536;2022-07-22T07:22:45;25.70;80.70
29687;DHT22;16599;47.078;15.536;2022-07-22T07:25:12;25.70;83.60
29687;DHT22;16599;47.078;15.536;2022-07-22T07:27:50;25.70;79.40
29687;DHT22;16599;47.078;15.536;2022-07-22T07:30:20;25.70;78.20
29687;DHT22;16599;47.078;15.536;2022-07-22T07:32:47;25.80;78.40
29687;DHT22;16599;47.078;15.536;2022-07-22T07:35:15;25.80;74.80
29687;DHT22;16599;47.078;15.536;2022-07-22T07:37:41;26.00;75.40
29687;DHT22;16599;47.078;15.536;2022-07-22T07:40:09;26.00;75.90
29687;DHT22;16599;47.078;15.536;2022-07-22T07:42:36;26.10;74.00
29687;DHT22;16599;47.078;15.536;2022-07-22T07:45:12;26.10;76.60
29687;DHT22;16599;47.078;15.536;2022-07-22T07:47:39;26.10;75.40
29687;DHT22;16599;47.078;15.536;2022-07-22T07:50:07;26.20;76.40
29687;DHT22;16599;47.078;15.536;2022-07-22T07:52:52;26.30;75.30
29687;DHT22;16599;47.078;15.536;2022-07-22T07:55:20;26.50;73.00
29687;DHT22;16599;47.078;15.536;2022-07-22T07:57:48;26.50;75.20
29687;DHT22;16599;47.078;15.536;2022-07-22T08:00:21;26.60;78.00
29687;DHT22;16599;47.078;15.536;2022-07-22T08:02:49;26.70;76.90
29687;DHT22;16599;47.078;15.536;2022-07-22T08:05:17;26.70;74.00
29687;DHT22;16599;47.078;15.536;2022-07-22T08:07:47;26.80;74.30
29687;DHT22;16599;47.078;15.536;2022-07-22T08:10:14;26.80;72.90
29687;DHT22;16599;47.078;15.536;2022-07-22T08:13:01;26.80;71.90
29687;DHT22;16599;47.078;15.536;2022-07-22T08:15:29;26.70;70.30
29687;DHT22;16599;47.078;15.536;2022-07-22T08:17:57;26.80;70.30
29687;DHT22;16599;47.078;15.536;2022-07-22T08:20:24;26.80;73.70
29687;DHT22;16599;47.078;15.536;2022-07-22T08:22:52;27.10;72.00
29687;DHT22;16599;47.078;15.536;2022-07-22T08:25:20;27.20;71.80
29687;DHT22;16599;47.078;15.536;2022-07-22T08:27:47;27.20;70.70
29687;DHT22;16599;47.078;15.536;2022-07-22T08:30:16;27.10;68.70
29687;DHT22;16599;47.078;15.536;2022-07-22T08:32:43;27.00;72.00
29687;DHT22;16599;47.078;15.536;2022-07-22T08:35:11;27.20;71.90
29687;DHT22;16599;47.078;15.536;2022-07-22T08:37:38;27.40;72.30
29687;DHT22;16599;47.078;15.536;2022-07-22T08:40:06;27.50;70.30
29687;DHT22;16599;47.078;15.536;2022-07-22T08:42:42;27.50;68.60
29687;DHT22;16599;47.078;15.536;2022-07-22T08:45:09;27.30;68.50
29687;DHT22;16599;47.078;15.536;2022-07-22T08:47:45;27.40;68.60
29687;DHT22;16599;47.078;15.536;2022-07-22T08:50:13;27.70;69.90
29687;DHT22;16599;47.078;15.536;2022-07-22T08:52:40;28.00;67.40
29687;DHT22;16599;47.078;15.536;2022-07-22T08:55:08;28.00;69.50
29687;DHT22;16599;47.078;15.536;2022-07-22T08:57:36;28.10;67.00
29687;DHT22;16599;47.078;15.536;2022-07-22T09:00:12;28.00;66.00
29687;DHT22;16599;47.078;15.536;2022-07-22T09:02:42;28.10;67.10
29687;DHT22;16599;47.078;15.536;2022-07-22T09:05:11;28.10;69.60
29687;DHT22;16599;47.078;15.536;2022-07-22T09:08:00;28.10;64.40
29687;DHT22;16599;47.078;15.536;2022-07-22T09:10:33;28.10;66.40
29687;DHT22;16599;47.078;15.536;2022-07-22T09:13:05;28.30;64.80
29687;DHT22;16599;47.078;15.536;2022-07-22T09:15:38;28.40;64.70
29687;DHT22;16599;47.078;15.536;2022-07-22T09:18:08;28.40;66.30
29687;DHT22;16599;47.078;15.536;2022-07-22T09:20:36;28.50;65.30
29687;DHT22;16599;47.078;15.536;2022-07-22T09:25:38;28.30;64.10
29687;DHT22;16599;47.078;15.536;2022-07-22T09:30:37;28.50;64.40
29687;DHT22;16599;47.078;15.536;2022-07-22T09:33:06;28.70;63.10
29687;DHT22;16599;47.078;15.536;2022-07-22T09:35:35;28.70;64.60
29687;DHT22;16599;47.078;15.536;2022-07-22T09:38:04;28.70;66.20
29687;DHT22;16599;47.078;15.536;2022-07-22T09:40:34;28.80;64.60
29687;DHT22;16599;47.078;15.536;2022-07-22T09:43:06;28.80;63.50
29687;DHT22;16599;47.078;15.536;2022-07-22T09:45:48;29.00;64.40
29687;DHT22;16599;47.078;15.536;2022-07-22T09:48:17;29.30;66.50
29687;DHT22;16599;47.078;15.536;2022-07-22T09:50:47;29.00;62.70
29687;DHT22;16599;47.078;15.536;2022-07-22T09:53:16;29.00;61.90
29687;DHT22;16599;47.078;15.536;2022-07-22T09:55:44;29.10;64.30
29687;DHT22;16599;47.078;15.536;2022-07-22T09:58:11;29.50;64.50
29687;DHT22;16599;47.078;15.536;2022-07-22T10:00:40;29.50;62.40
29687;DHT22;16599;47.078;15.536;2022-07-22T10:03:12;29.40;61.00
29687;DHT22;16599;47.078;15.536;2022-07-22T10:05:41;29.30;62.10
29687;DHT22;16599;47.078;15.536;2022-07-22T10:08:09;29.20;61.60
29687;DHT22;16599;47.078;15.536;2022-07-22T10:10:37;29.40;63.00
29687;DHT22;16599;47.078;15.536;2022-07-22T10:13:06;29.70;61.00
29687;DHT22;16599;47.078;15.536;2022-07-22T10:15:35;29.80;59.80
29687;DHT22;16599;47.078;15.536;2022-07-22T10:18:09;29.70;57.30
29687;DHT22;16599;47.078;15.536;2022-07-22T10:20:40;29.40;59.40
29687;DHT22;16599;47.078;15.536;2022-07-22T10:23:08;29.70;60.30
29687;DHT22;16599;47.078;15.536;2022-07-22T10:25:54;29.40;60.50
29687;DHT22;16599;47.078;15.536;2022-07-22T10:31:19;29.70;62.20
29687;DHT22;16599;47.078;15.536;2022-07-22T10:33:51;29.90;61.60
29687;DHT22;16599;47.078;15.536;2022-07-22T10:36:33;30.10;60.10
29687;DHT22;16599;47.078;15.536;2022-07-22T10:39:06;30.20;58.20
29687;DHT22;16599;47.078;15.536;2022-07-22T10:41:41;30.20;57.60
29687;DHT22;16599;47.078;15.536;2022-07-22T10:44:48;30.20;58.80
29687;DHT22;16599;47.078;15.536;2022-07-22T10:47:52;30.50;58.00
29687;DHT22;16599;47.078;15.536;2022-07-22T10:55:36;30.40;57.70
29687;DHT22;16599;47.078;15.536;2022-07-22T11:01:05;30.60;56.00
29687;DHT22;16599;47.078;15.536;2022-07-22T11:03:34;30.50;56.40
29687;DHT22;16599;47.078;15.536;2022-07-22T11:06:18;30.30;57.00
29687;DHT22;16599;47.078;15.536;2022-07-22T11:09:08;30.50;56.50
29687;DHT22;16599;47.078;15.536;2022-07-22T11:11:45;30.40;57.90
29687;DHT22;16599;47.078;15.536;2022-07-22T11:16:48;30.50;55.80
29687;DHT22;16599;47.078;15.536;2022-07-22T11:19:23;30.50;57.10
29687;DHT22;16599;47.078;15.536;2022-07-22T11:21:53;30.50;57.30
29687;DHT22;16599;47.078;15.536;2022-07-22T11:24:21;30.80;57.00
29687;DHT22;16599;47.078;15.536;2022-07-22T11:26:50;30.60;56.00
29687;DHT22;16599;47.078;15.536;2022-07-22T11:29:25;30.80;56.00
29687;DHT22;16599;47.078;15.536;2022-07-22T11:31:53;30.60;54.90
29687;DHT22;16599;47.078;15.536;2022-07-22T11:34:20;30.80;57.90
29687;DHT22;16599;47.078;15.536;2022-07-22T11:36:49;31.00;57.90
29687;DHT22;16599;47.078;15.536;2022-07-22T11:39:25;31.00;55.80
29687;DHT22;16599;47.078;15.536;2022-07-22T11:41:55;30.90;55.40
29687;DHT22;16599;47.078;15.536;2022-07-22T11:44:31;31.00;54.20
29687;DHT22;16599;47.078;15.536;2022-07-22T11:46:59;31.10;53.20
29687;DHT22;16599;47.078;15.536;2022-07-22T11:49:29;31.10;53.40
29687;DHT22;16599;47.078;15.536;2022-07-22T11:51:57;31.00;54.00
29687;DHT22;16599;47.078;15.536;2022-07-22T11:54:24;30.90;55.00
29687;DHT22;16599;47.078;15.536;2022-07-22T11:56:50;31.00;54.30
29687;DHT22;16599;47.078;15.536;2022-07-22T11:59:23;31.20;54.90
29687;DHT22;16599;47.078;15.536;2022-07-22T12:01:50;31.40;55.80
29687;DHT22;16599;47.078;15.536;2022-07-22T12:04:22;31.60;56.40
29687;DHT22;16599;47.078;15.536;2022-07-22T12:06:50;31.60;56.40
29687;DHT22;16599;47.078;15.536;2022-07-22T12:09:22;31.60;53.60
29687;DHT22;16599;47.078;15.536;2022-07-22T12:11:53;31.00;55.80
29687;DHT22;16599;47.078;15.536;2022-07-22T12:14:31;30.60;54.70
29687;DHT22;16599;47.078;15.536;2022-07-22T12:19:31;31.30;54.80
29687;DHT22;16599;47.078;15.536;2022-07-22T12:22:06;31.20;54.50
29687;DHT22;16599;47.078;15.536;2022-07-22T12:27:05;30.40;55.60
29687;DHT22;16599;47.078;15.536;2022-07-22T12:32:16;31.20;55.90
29687;DHT22;16599;47.078;15.536;2022-07-22T12:34:47;31.70;54.60
29687;DHT22;16599;47.078;15.536;2022-07-22T12:40:02;32.00;52.30
29687;DHT22;16599;47.078;15.536;2022-07-22T12:53:12;31.60;53.50
29687;DHT22;16599;47.078;15.536;2022-07-22T12:58:10;31.70;56.00
29687;DHT22;16599;47.078;15.536;2022-07-22T13:00:40;32.10;55.40
29687;DHT22;16599;47.078;15.536;2022-07-22T13:03:07;32.00;55.10
29687;DHT22;16599;47.078;15.536;2022-07-22T13:05:34;32.20;55.80
29687;DHT22;16599;47.078;15.536;2022-07-22T13:08:03;31.70;53.40
29687;DHT22;16599;47.078;15.536;2022-07-22T13:10:35;31.40;56.40
29687;DHT22;16599;47.078;15.536;2022-07-22T13:13:05;31.90;55.10
29687;DHT22;16599;47.078;15.536;2022-07-22T13:15:32;32.10;54.80
29687;DHT22;16599;47.078;15.536;2022-07-22T13:17:59;32.30;54.00
29687;DHT22;16599;47.078;15.536;2022-07-22T13:20:26;32.30;54.20
29687;DHT22;16599;47.078;15.536;2022-07-22T13:22:53;32.20;52.50
29687;DHT22;16599;47.078;15.536;2022-07-22T13:25:19;32.40;53.50
29687;DHT22;16599;47.078;15.536;2022-07-22T13:27:46;32.40;53.90
29687;DHT22;16599;47.078;15.536;2022-07-22T13:30:13;32.70;53.50
29687;DHT22;16599;47.078;15.536;2022-07-22T13:32:40;32.70;53.20
29687;DHT22;16599;47.078;15.536;2022-07-22T13:35:16;32.70;53.70
29687;DHT22;16599;47.078;15.536;2022-07-22T13:37:46;32.50;54.50
29687;DHT22;16599;47.078;15.536;2022-07-22T13:40:14;32.70;53.70
29687;DHT22;16599;47.078;15.536;2022-07-22T13:42:41;32.70;52.40
29687;DHT22;16599;47.078;15.536;2022-07-22T13:45:08;32.80;53.60
29687;DHT22;16599;47.078;15.536;2022-07-22T13:47:37;33.00;53.20
29687;DHT22;16599;47.078;15.536;2022-07-22T13:50:05;32.90;52.10
29687;DHT22;16599;47.078;15.536;2022-07-22T13:52:32;32.70;52.50
29687;DHT22;16599;47.078;15.536;2022-07-22T13:54:59;32.50;52.40
29687;DHT22;16599;47.078;15.536;2022-07-22T13:57:26;32.50;51.30
29687;DHT22;16599;47.078;15.536;2022-07-22T13:59:53;32.10;52.70
29687;DHT22;16599;47.078;15.536;2022-07-22T14:02:20;32.20;53.10
29687;DHT22;16599;47.078;15.536;2022-07-22T14:04:47;32.30;53.00
29687;DHT22;16599;47.078;15.536;2022-07-22T14:07:14;32.60;53.30
29687;DHT22;16599;47.078;15.536;2022-07-22T14:09:41;32.60;51.00
29687;DHT22;16599;47.078;15.536;2022-07-22T14:12:08;32.10;51.70
29687;DHT22;16599;47.078;15.536;2022-07-22T14:14:35;31.70;53.30
29687;DHT22;16599;47.078;15.536;2022-07-22T14:17:02;31.90;54.00
29687;DHT22;16599;47.078;15.536;2022-07-22T14:19:29;32.10;52.60
29687;DHT22;16599;47.078;15.536;2022-07-22T14:21:56;32.30;53.00
29687;DHT22;16599;47.078;15.536;2022-07-22T14:24:23;32.80;52.80
29687;DHT22;16599;47.078;15.536;2022-07-22T14:26:51;32.70;51.90
29687;DHT22;16599;47.078;15.536;2022-07-22T14:29:18;32.70;50.60
29687;DHT22;16599;47.078;15.536;2022-07-22T14:31:48;32.50;50.80
29687;DHT22;16599;47.078;15.536;2022-07-22T14:34:15;32.60;51.10
29687;DHT22;16599;47.078;15.536;2022-07-22T14:36:44;32.70;51.00
29687;DHT22;16599;47.078;15.536;2022-07-22T14:39:11;32.50;50.40
29687;DHT22;16599;47.078;15.536;2022-07-22T14:41:38;32.30;51.50
29687;DHT22;16599;47.078;15.536;2022-07-22T14:44:05;32.10;51.40
29687;DHT22;16599;47.078;15.536;2022-07-22T14:46:32;32.30;50.00
29687;DHT22;16599;47.078;15.536;2022-07-22T14:48:59;32.30;53.10
29687;DHT22;16599;47.078;15.536;2022-07-22T14:51:26;32.70;51.40
29687;DHT22;16599;47.078;15.536;2022-07-22T14:53:53;33.00;50.30
29687;DHT22;16599;47.078;15.536;2022-07-22T14:56:20;33.00;50.10
29687;DHT22;16599;47.078;15.536;2022-07-22T14:58:47;33.00;50.50
29687;DHT22;16599;47.078;15.536;2022-07-22T15:01:14;33.00;50.60
29687;DHT22;16599;47.078;15.536;2022-07-22T15:03:41;33.20;50.00
29687;DHT22;16599;47.078;15.536;2022-07-22T15:06:09;32.70;49.20
29687;DHT22;16599;47.078;15.536;2022-07-22T15:08:36;32.10;51.40
29687;DHT22;16599;47.078;15.536;2022-07-22T15:11:03;32.30;49.90
29687;DHT22;16599;47.078;15.536;2022-07-22T15:13:30;32.10;51.30
29687;DHT22;16599;47.078;15.536;2022-07-22T15:15:58;32.10;52.10
29687;DHT22;16599;47.078;15.536;2022-07-22T15:18:25;32.50;52.70
29687;DHT22;16599;47.078;15.536;2022-07-22T15:20:52;32.80;50.90
29687;DHT22;16599;47.078;15.536;2022-07-22T15:23:23;32.40;50.10
29687;DHT22;16599;47.078;15.536;2022-07-22T15:25:57;32.30;50.80
29687;DHT22;16599;47.078;15.536;2022-07-22T15:28:25;32.50;50.90
29687;DHT22;16599;47.078;15.536;2022-07-22T15:31:01;32.80;50.80
29687;DHT22;16599;47.078;15.536;2022-07-22T15:33:28;32.80;50.40
29687;DHT22;16599;47.078;15.536;2022-07-22T15:36:06;32.60;50.10
29687;DHT22;16599;47.078;15.536;2022-07-22T15:38:34;32.10;51.60
29687;DHT22;16599;47.078;15.536;2022-07-22T15:41:02;32.10;51.70
29687;DHT22;16599;47.078;15.536;2022-07-22T15:43:30;32.00;51.50
29687;DHT22;16599;47.078;15.536;2022-07-22T15:45:57;31.90;51.60
29687;DHT22;16599;47.078;15.536;2022-07-22T15:48:24;31.80;53.10
29687;DHT22;16599;47.078;15.536;2022-07-22T15:50:51;31.60;54.20
29687;DHT22;16599;47.078;15.536;2022-07-22T15:53:18;31.70;53.40
29687;DHT22;16599;47.078;15.536;2022-07-22T15:55:46;31.70;53.80
29687;DHT22;16599;47.078;15.536;2022-07-22T15:58:14;31.60;53.60
29687;DHT22;16599;47.078;15.536;2022-07-22T16:01:00;31.70;53.30
29687;DHT22;16599;47.078;15.536;2022-07-22T16:03:27;31.70;53.40
29687;DHT22;16599;47.078;15.536;2022-07-22T16:05:55;31.50;53.50